Time;durP1;ratioP1;P1;durP2;ratioP2;P2;SDS_P1;SDS_P2;PMS_P1;PMS_P2;Temp;Humidity;BMP_temperature;BMP_pressure;BME280_temperature;BME280_humidity;BME280_pressure;Samples;Min_cycle;Max_cycle;Signal;HPM_P1;HPM_P2
2021/01/06 00:04:32;;;;;;;9.63;4.38;;;2.30;99.90;;;;;;10347081;28;20457;-66
2021/01/06 00:09:33;;;;;;;8.15;3.53;;;2.30;99.90;;;;;;10355716;28;20091;-65
2021/01/06 00:14:34;;;;;;;8.57;4.47;;;2.30;99.90;;;;;;10328971;28;20054;-65
2021/01/06 00:19:35;;;;;;;9.77;4.15;;;2.30;99.90;;;;;;10343159;28;20050;-65
2021/01/06 00:24:36;;;;;;;7.82;3.65;;;2.30;99.90;;;;;;10315280;28;20055;-65
2021/01/06 00:29:37;;;;;;;7.65;3.95;;;2.30;99.90;;;;;;10316469;28;20046;-65
2021/01/06 00:34:39;;;;;;;8.45;4.40;;;2.20;99.90;;;;;;10340959;28;20053;-65
2021/01/06 00:39:40;;;;;;;9.35;4.18;;;2.20;99.90;;;;;;10330625;28;20069;-65
2021/01/06 00:44:41;;;;;;;10.27;4.97;;;2.20;99.90;;;;;;10322988;28;20127;-66
2021/01/06 00:49:43;;;;;;;12.10;4.90;;;2.20;99.90;;;;;;10327041;28;20046;-65
2021/01/06 00:54:46;;;;;;;13.55;5.93;;;2.20;99.90;;;;;;10320329;28;20050;-65
2021/01/06 00:59:48;;;;;;;10.55;4.68;;;2.20;99.90;;;;;;10320349;28;20045;-65
2021/01/06 01:04:49;;;;;;;12.43;5.43;;;2.20;99.90;;;;;;10346954;28;20448;-65
2021/01/06 01:09:50;;;;;;;9.55;4.38;;;2.20;99.90;;;;;;10294971;28;20053;-65
2021/01/06 01:14:52;;;;;;;12.25;5.60;;;2.10;99.90;;;;;;10332783;28;20046;-65
2021/01/06 01:19:53;;;;;;;11.57;5.05;;;2.10;99.90;;;;;;10322996;28;20051;-66
2021/01/06 01:24:54;;;;;;;9.75;4.97;;;2.10;99.90;;;;;;10314133;28;20034;-66
2021/01/06 01:29:55;;;;;;;12.48;6.22;;;2.10;99.90;;;;;;10314913;28;20054;-65
2021/01/06 01:34:56;;;;;;;11.40;5.88;;;2.20;99.90;;;;;;10317232;28;20054;-66
2021/01/06 01:39:57;;;;;;;11.40;4.85;;;2.20;99.90;;;;;;10346348;28;20045;-65
2021/01/06 01:45:03;;;;;;;9.52;4.45;;;2.20;99.90;;;;;;10365943;28;20046;-65
2021/01/06 01:50:06;;;;;;;11.27;5.10;;;2.20;99.90;;;;;;10364983;28;20073;-65
2021/01/06 01:55:11;;;;;;;11.10;4.97;;;2.20;99.90;;;;;;10360231;28;20381;-65
2021/01/06 02:00:17;;;;;;;8.30;3.83;;;2.20;99.90;;;;;;10364613;28;20054;-64
2021/01/06 02:05:24;;;;;;;10.35;4.53;;;2.10;99.90;;;;;;10363937;28;20144;-64
2021/01/06 02:10:34;;;;;;;10.45;4.53;;;2.10;99.90;;;;;;10355256;28;20139;-64
2021/01/06 02:15:57;;;;;;;8.63;4.35;;;2.00;99.90;;;;;;10332457;28;20107;-64
2021/01/06 02:21:10;;;;;;;10.32;3.88;;;1.90;99.90;;;;;;10325366;28;20057;-64
2021/01/06 02:26:12;;;;;;;10.45;5.30;;;1.70;99.90;;;;;;10354522;28;20115;-65
2021/01/06 02:31:15;;;;;;;10.00;4.53;;;1.80;99.90;;;;;;10364601;28;20127;-64
2021/01/06 02:36:17;;;;;;;7.70;4.65;;;1.80;99.90;;;;;;10365279;28;20050;-64
2021/01/06 02:41:19;;;;;;;8.43;3.78;;;1.80;99.90;;;;;;10365216;28;20046;-64
2021/01/06 02:46:21;;;;;;;11.18;4.55;;;2.00;99.90;;;;;;10351789;28;20049;-64
2021/01/06 02:51:32;;;;;;;9.43;4.43;;;2.00;99.90;;;;;;10357747;28;20554;-64
2021/01/06 02:56:35;;;;;;;13.93;3.83;;;2.10;99.90;;;;;;10360805;28;20096;-64
2021/01/06 03:01:40;;;;;;;11.90;6.93;;;2.10;99.90;;;;;;10294338;28;20738;-64
2021/01/06 03:06:53;;;;;;;7.97;3.72;;;2.10;99.90;;;;;;10346229;28;20123;-64
2021/01/06 03:11:57;;;;;;;7.60;4.20;;;2.20;99.90;;;;;;10358888;28;20045;-64
2021/01/06 03:16:59;;;;;;;8.55;3.55;;;2.20;99.90;;;;;;10359613;28;20053;-64
2021/01/06 03:22:03;;;;;;;10.20;3.28;;;2.30;99.90;;;;;;10361662;28;20045;-64
2021/01/06 03:27:06;;;;;;;8.60;3.58;;;2.20;99.90;;;;;;10364258;28;20129;-64
2021/01/06 03:32:21;;;;;;;10.38;3.97;;;2.30;99.90;;;;;;10369876;28;20139;-64
2021/01/06 03:37:35;;;;;;;10.18;3.75;;;2.30;99.90;;;;;;10323949;28;20341;-64
2021/01/06 03:42:36;;;;;;;7.63;3.70;;;2.30;99.90;;;;;;10374936;28;20046;-64
2021/01/06 03:47:41;;;;;;;12.23;3.70;;;2.30;99.90;;;;;;10374078;28;20108;-64
2021/01/06 03:52:58;;;;;;;6.55;3.10;;;2.30;99.90;;;;;;10372567;28;20104;-64
2021/01/06 03:58:00;;;;;;;7.00;3.13;;;2.30;99.90;;;;;;10359377;28;20144;-64
2021/01/06 04:03:09;;;;;;;6.18;2.88;;;2.40;99.90;;;;;;10374186;28;20046;-64
2021/01/06 04:08:15;;;;;;;7.25;2.80;;;2.40;99.90;;;;;;10373599;28;20104;-64
2021/01/06 04:13:17;;;;;;;5.80;2.90;;;2.40;99.90;;;;;;10361540;28;20520;-64
2021/01/06 04:18:18;;;;;;;10.18;3.67;;;2.40;99.90;;;;;;10362125;28;20724;-64
2021/01/06 04:23:20;;;;;;;7.60;3.20;;;2.40;99.90;;;;;;10369471;28;20049;-64
2021/01/06 04:28:24;;;;;;;6.10;2.97;;;2.40;99.90;;;;;;10359124;28;20101;-64
2021/01/06 04:33:35;;;;;;;7.97;3.70;;;2.40;99.90;;;;;;10365384;28;20056;-64
2021/01/06 04:38:39;;;;;;;6.47;3.45;;;2.40;99.90;;;;;;10365056;28;20061;-64
2021/01/06 04:43:50;;;;;;;5.90;3.03;;;2.50;99.90;;;;;;10357582;28;20049;-64
2021/01/06 04:49:03;;;;;;;7.40;3.38;;;2.50;99.90;;;;;;10281045;28;20392;-64
2021/01/06 04:54:22;;;;;;;5.95;3.22;;;2.50;99.90;;;;;;10375500;28;20045;-64
2021/01/06 04:59:56;;;;;;;4.82;2.72;;;2.50;99.90;;;;;;10319536;28;20050;-64
2021/01/06 05:05:31;;;;;;;5.90;2.97;;;2.60;99.90;;;;;;10314315;28;20049;-64
2021/01/06 05:10:35;;;;;;;7.10;3.30;;;2.60;99.90;;;;;;10307540;28;20081;-64
2021/01/06 05:15:42;;;;;;;6.97;2.97;;;2.60;99.90;;;;;;10372024;28;20909;-65
2021/01/06 05:20:43;;;;;;;8.13;3.67;;;2.70;99.90;;;;;;10359279;28;20045;-64
2021/01/06 05:25:44;;;;;;;6.88;3.60;;;2.70;99.90;;;;;;10366354;28;20038;-64
2021/01/06 05:30:51;;;;;;;7.30;3.85;;;2.70;99.90;;;;;;10364105;28;20089;-63
2021/01/06 05:35:52;;;;;;;5.30;3.00;;;2.70;99.90;;;;;;10361276;28;20042;-65
2021/01/06 05:40:54;;;;;;;7.53;3.83;;;2.70;99.90;;;;;;10371658;28;20445;-63
2021/01/06 05:46:05;;;;;;;5.82;3.13;;;2.70;99.90;;;;;;10362306;28;20046;-63
2021/01/06 05:51:21;;;;;;;7.30;3.20;;;2.80;99.90;;;;;;10360897;28;20088;-63
2021/01/06 05:56:32;;;;;;;8.30;3.13;;;2.80;99.90;;;;;;10281102;28;20049;-63
2021/01/06 06:01:50;;;;;;;7.13;3.42;;;2.80;99.90;;;;;;10362173;28;20527;-63
2021/01/06 06:07:23;;;;;;;6.88;3.42;;;2.70;99.90;;;;;;10313806;28;20101;-63
2021/01/06 06:13:04;;;;;;;5.80;3.00;;;2.70;99.90;;;;;;10255491;28;20369;-63
2021/01/06 06:18:18;;;;;;;6.18;3.45;;;2.70;99.90;;;;;;10282624;28;20057;-64
2021/01/06 06:23:58;;;;;;;8.70;3.72;;;2.70;99.90;;;;;;10365574;28;20045;-64
2021/01/06 06:29:13;;;;;;;6.53;2.67;;;2.70;99.90;;;;;;10308351;28;20550;-64
2021/01/06 06:34:14;;;;;;;7.75;3.45;;;2.80;99.90;;;;;;10368042;28;20531;-64
2021/01/06 06:39:31;;;;;;;7.53;2.85;;;2.70;99.90;;;;;;10353338;28;20077;-64
2021/01/06 06:44:34;;;;;;;5.13;2.60;;;2.70;99.90;;;;;;10360121;28;20490;-64
2021/01/06 06:50:14;;;;;;;9.23;3.25;;;2.70;99.90;;;;;;10359545;28;20100;-64
2021/01/06 06:55:30;;;;;;;5.85;2.47;;;2.70;99.90;;;;;;10294489;28;20046;-64
2021/01/06 07:00:36;;;;;;;4.90;2.65;;;2.70;99.90;;;;;;10364215;28;20515;-64
2021/01/06 07:05:47;;;;;;;5.68;2.85;;;2.70;99.90;;;;;;10377134;28;20436;-65
2021/01/06 07:11:19;;;;;;;3.90;2.08;;;2.70;99.90;;;;;;10363052;28;20096;-65
2021/01/06 07:16:31;;;;;;;6.07;2.33;;;2.60;99.90;;;;;;10369091;28;20474;-64
2021/01/06 07:21:34;;;;;;;7.47;2.55;;;2.70;99.90;;;;;;10370568;28;20034;-64
2021/01/06 07:26:49;;;;;;;6.28;2.65;;;2.70;99.90;;;;;;10374703;28;20086;-65
2021/01/06 07:31:59;;;;;;;5.00;2.17;;;2.80;99.90;;;;;;10354663;28;20056;-65
2021/01/06 07:37:01;;;;;;;8.52;2.72;;;2.80;99.90;;;;;;10367479;28;20058;-65
2021/01/06 07:42:07;;;;;;;6.00;3.03;;;2.80;99.90;;;;;;10372183;28;20052;-65
2021/01/06 07:47:17;;;;;;;7.13;2.70;;;2.80;99.90;;;;;;10367454;28;20057;-65
2021/01/06 07:53:06;;;;;;;7.90;3.25;;;2.80;99.90;;;;;;10366094;28;20045;-65
2021/01/06 07:58:16;;;;;;;4.45;1.80;;;2.90;99.90;;;;;;10287005;28;20076;-65
2021/01/06 08:03:44;;;;;;;2.95;1.58;;;2.90;99.90;;;;;;10367006;28;20452;-65
2021/01/06 08:08:50;;;;;;;2.33;1.55;;;3.00;99.90;;;;;;10355192;28;20108;-65
2021/01/06 08:13:51;;;;;;;4.37;1.90;;;3.00;99.90;;;;;;10362228;28;20408;-65
2021/01/06 08:19:23;;;;;;;4.28;2.38;;;2.90;99.90;;;;;;10371459;28;20056;-65
2021/01/06 08:24:33;;;;;;;3.53;1.50;;;2.90;99.90;;;;;;10274093;28;20077;-65
2021/01/06 08:29:35;;;;;;;5.03;1.63;;;3.00;99.90;;;;;;10354113;28;20057;-65
2021/01/06 08:34:40;;;;;;;2.78;1.60;;;3.00;99.90;;;;;;10370704;28;20038;-64
2021/01/06 08:39:53;;;;;;;4.05;1.85;;;2.90;99.90;;;;;;10365539;28;20057;-66
2021/01/06 08:44:59;;;;;;;3.95;1.67;;;3.00;99.90;;;;;;10317852;28;20053;-65
2021/01/06 08:50:33;;;;;;;2.85;1.65;;;3.00;99.90;;;;;;10361932;28;20053;-65
2021/01/06 08:55:37;;;;;;;4.53;1.88;;;3.00;99.90;;;;;;10306114;28;20061;-65
2021/01/06 09:00:51;;;;;;;4.72;1.85;;;3.00;99.90;;;;;;10366291;28;20053;-66
2021/01/06 09:05:58;;;;;;;3.70;1.65;;;3.00;99.90;;;;;;10270785;28;20119;-66
2021/01/06 09:11:34;;;;;;;2.88;1.50;;;3.10;99.90;;;;;;10343408;28;20084;-65
2021/01/06 09:16:49;;;;;;;4.38;1.73;;;3.10;99.90;;;;;;10292109;28;20034;-65
2021/01/06 09:21:51;;;;;;;4.63;2.00;;;3.10;99.90;;;;;;10361678;28;20042;-65
2021/01/06 09:26:57;;;;;;;4.45;1.88;;;3.20;99.90;;;;;;10360115;28;20105;-66
2021/01/06 09:32:00;;;;;;;3.38;1.90;;;3.30;99.90;;;;;;10359345;28;20085;-65
2021/01/06 09:37:02;;;;;;;3.35;1.55;;;3.30;99.90;;;;;;10357380;28;20189;-65
2021/01/06 09:42:05;;;;;;;5.25;2.10;;;3.50;99.90;;;;;;10361809;28;20483;-65
2021/01/06 09:47:31;;;;;;;2.13;1.40;;;3.60;99.90;;;;;;10355160;28;20127;-65
2021/01/06 09:52:39;;;;;;;4.15;1.67;;;3.70;99.90;;;;;;10289863;28;20046;-66
2021/01/06 09:57:41;;;;;;;3.17;1.30;;;3.80;99.90;;;;;;10367949;28;20140;-66
2021/01/06 10:02:49;;;;;;;3.63;1.50;;;3.80;99.90;;;;;;10366876;28;20056;-66
2021/01/06 10:08:17;;;;;;;3.40;1.53;;;3.70;99.90;;;;;;10359910;28;20051;-66
2021/01/06 10:13:39;;;;;;;3.10;1.42;;;3.70;99.90;;;;;;10364887;28;20053;-65
2021/01/06 10:18:59;;;;;;;2.88;1.20;;;3.70;99.90;;;;;;10365891;28;20538;-65
2021/01/06 10:24:21;;;;;;;3.25;1.58;;;3.70;99.90;;;;;;10312784;28;20050;-65
2021/01/06 10:29:28;;;;;;;1.92;1.20;;;3.70;99.90;;;;;;10261133;28;20060;-65
2021/01/06 10:34:37;;;;;;;3.20;1.33;;;3.70;99.90;;;;;;10359820;28;20563;-65
2021/01/06 10:39:47;;;;;;;3.38;1.95;;;3.70;99.90;;;;;;10364071;28;20092;-66
2021/01/06 10:44:55;;;;;;;2.65;1.55;;;3.60;99.90;;;;;;10359655;28;20076;-65
2021/01/06 10:50:34;;;;;;;2.53;1.52;;;3.50;99.90;;;;;;10362275;28;20057;-65
2021/01/06 10:55:50;;;;;;;3.75;1.52;;;3.70;99.90;;;;;;10305866;28;20472;-65
2021/01/06 11:01:15;;;;;;;4.55;1.58;;;3.70;99.90;;;;;;10359408;28;20046;-65
2021/01/06 11:06:29;;;;;;;4.85;2.17;;;3.70;99.90;;;;;;10354122;28;20084;-65
2021/01/06 11:11:33;;;;;;;3.10;1.88;;;3.70;99.90;;;;;;10366577;28;20463;-65
2021/01/06 11:16:45;;;;;;;3.60;1.85;;;3.80;99.90;;;;;;10361835;28;20111;-65
2021/01/06 11:22:18;;;;;;;2.97;1.65;;;3.90;99.90;;;;;;10354352;28;20571;-65
2021/01/06 11:27:40;;;;;;;3.25;1.30;;;4.00;99.90;;;;;;10359223;28;20100;-65
2021/01/06 11:32:42;;;;;;;3.92;1.85;;;4.10;99.90;;;;;;10353987;28;20045;-66
2021/01/06 11:37:44;;;;;;;2.42;1.40;;;4.10;99.90;;;;;;10359833;28;20034;-66
2021/01/06 11:42:55;;;;;;;4.50;2.45;;;4.20;99.90;;;;;;10363543;28;20099;-66
2021/01/06 11:48:17;;;;;;;6.50;1.60;;;4.30;99.90;;;;;;10368032;28;20049;-64
2021/01/06 11:53:29;;;;;;;2.47;1.33;;;4.30;99.90;;;;;;10368998;28;20381;-65
2021/01/06 11:59:06;;;;;;;2.65;1.40;;;4.40;99.90;;;;;;10360740;28;20049;-65
2021/01/06 12:04:29;;;;;;;2.15;1.35;;;4.30;99.90;;;;;;10285840;28;20054;-66
2021/01/06 12:09:44;;;;;;;3.50;1.45;;;4.30;99.90;;;;;;10261699;28;20061;-66
2021/01/06 12:15:30;;;;;;;1.65;0.90;;;4.40;99.90;;;;;;10357736;28;20488;-66
2021/01/06 12:20:35;;;;;;;2.05;1.10;;;4.30;99.90;;;;;;10252361;28;20142;-65
2021/01/06 12:25:52;;;;;;;2.45;1.00;;;4.40;99.90;;;;;;10368878;28;20072;-67
2021/01/06 12:31:14;;;;;;;1.45;0.90;;;4.50;99.90;;;;;;10313909;28;20041;-66
2021/01/06 12:36:23;;;;;;;1.67;1.00;;;4.50;99.90;;;;;;10370201;28;20452;-66
2021/01/06 12:41:25;;;;;;;2.08;0.90;;;4.50;99.90;;;;;;10373015;28;20060;-65
2021/01/06 12:46:40;;;;;;;1.77;0.90;;;4.40;99.90;;;;;;10375377;28;20411;-67
2021/01/06 12:51:58;;;;;;;1.50;0.98;;;4.50;99.90;;;;;;10356386;28;20112;-67
2021/01/06 12:57:07;;;;;;;1.73;0.90;;;4.50;99.90;;;;;;10317686;28;20049;-67
2021/01/06 13:02:35;;;;;;;1.58;0.82;;;4.50;99.90;;;;;;10368497;28;20054;-67
2021/01/06 13:07:38;;;;;;;1.70;1.00;;;4.60;99.90;;;;;;10289513;28;20045;-67
2021/01/06 13:12:47;;;;;;;2.20;1.13;;;4.50;99.90;;;;;;10368253;28;20057;-67
2021/01/06 13:18:11;;;;;;;1.40;1.00;;;4.50;99.90;;;;;;10365845;28;20058;-65
2021/01/06 13:23:36;;;;;;;2.30;1.10;;;4.60;99.90;;;;;;10368602;28;20042;-66
2021/01/06 13:28:38;;;;;;;1.25;0.75;;;4.60;99.90;;;;;;10372539;28;20069;-66
2021/01/06 13:34:01;;;;;;;2.05;0.82;;;4.60;99.90;;;;;;10362879;28;20506;-66
2021/01/06 13:39:21;;;;;;;2.22;0.98;;;4.50;99.90;;;;;;10321450;28;20112;-66
2021/01/06 13:44:37;;;;;;;1.73;0.80;;;4.60;99.90;;;;;;10282008;28;20053;-67
2021/01/06 13:49:59;;;;;;;1.15;0.80;;;4.60;99.90;;;;;;10376820;28;20038;-66
2021/01/06 13:55:08;;;;;;;1.40;0.68;;;4.50;99.90;;;;;;10321211;28;20058;-66
2021/01/06 14:00:35;;;;;;;4.97;0.70;;;4.50;99.90;;;;;;10395020;28;20110;-66
2021/01/06 14:05:40;;;;;;;2.03;1.00;;;4.50;99.90;;;;;;10337221;28;20077;-66
2021/01/06 14:11:19;;;;;;;1.15;0.60;;;4.40;99.90;;;;;;10390066;28;20806;-66
2021/01/06 14:16:28;;;;;;;;;;;4.30;99.90;;;;;;10392286;28;20042;-66
2021/01/06 14:21:49;;;;;;;1.10;0.68;;;4.20;99.90;;;;;;10391817;28;19948;-66
2021/01/06 14:27:11;;;;;;;1.58;0.90;;;4.20;99.90;;;;;;10351514;28;20045;-66
2021/01/06 14:32:18;;;;;;;2.25;0.88;;;4.20;99.90;;;;;;10339483;28;20113;-65
2021/01/06 14:37:25;;;;;;;1.85;1.10;;;4.20;99.90;;;;;;10346550;28;20058;-65
2021/01/06 14:42:38;;;;;;;2.85;1.10;;;4.20;99.90;;;;;;10360926;28;20057;-66
2021/01/06 14:47:43;;;;;;;2.40;1.10;;;4.30;99.90;;;;;;10346610;28;20519;-65
2021/01/06 14:53:17;;;;;;;3.67;1.65;;;4.20;99.90;;;;;;10347385;28;20049;-65
2021/01/06 14:58:31;;;;;;;5.43;2.42;;;4.10;99.90;;;;;;10342807;28;20726;-65
2021/01/06 15:04:14;;;;;;;4.80;2.10;;;4.10;99.90;;;;;;10339609;28;20435;-66
2021/01/06 15:09:54;;;;;;;4.25;1.95;;;4.10;99.90;;;;;;10267361;28;20053;-66
2021/01/06 15:15:04;;;;;;;6.53;2.63;;;4.20;99.90;;;;;;10236151;28;20096;-66
2021/01/06 15:20:18;;;;;;;4.45;2.05;;;4.10;99.90;;;;;;10352648;28;20045;-66
2021/01/06 15:25:30;;;;;;;8.07;2.70;;;4.10;99.90;;;;;;10395276;28;20395;-66
2021/01/06 15:30:34;;;;;;;6.07;2.85;;;4.10;99.90;;;;;;10399332;28;20541;-66
2021/01/06 15:35:39;;;;;;;6.18;2.78;;;4.00;99.90;;;;;;10391012;28;20049;-63
2021/01/06 15:40:40;;;;;;;5.13;2.65;;;4.10;99.90;;;;;;10395736;28;20122;-63
2021/01/06 15:45:42;;;;;;;10.77;3.10;;;4.10;99.90;;;;;;10403860;28;20056;-63
2021/01/06 15:51:02;;;;;;;5.97;3.33;;;4.00;99.90;;;;;;10390682;28;20045;-63
2021/01/06 15:56:13;;;;;;;5.35;2.95;;;4.00;99.90;;;;;;10396761;28;20049;-63
2021/01/06 16:01:23;;;;;;;7.22;4.18;;;4.00;99.90;;;;;;10385061;28;20088;-63
2021/01/06 16:06:32;;;;;;;7.47;3.03;;;4.00;99.90;;;;;;10399876;28;20126;-64
2021/01/06 16:11:35;;;;;;;5.68;2.83;;;4.00;99.90;;;;;;10387122;28;20096;-64
2021/01/06 16:16:42;;;;;;;4.95;2.15;;;4.00;99.90;;;;;;10392299;28;20551;-63
2021/01/06 16:21:46;;;;;;;5.22;2.70;;;3.90;99.90;;;;;;10390308;28;20129;-63
2021/01/06 16:26:59;;;;;;;5.28;2.83;;;4.00;99.90;;;;;;10397849;28;20053;-64
2021/01/06 16:32:19;;;;;;;5.72;3.13;;;3.90;99.90;;;;;;10392519;28;20076;-63
2021/01/06 16:37:21;;;;;;;3.35;1.83;;;3.90;99.90;;;;;;10399455;28;20843;-63
2021/01/06 16:42:52;;;;;;;4.47;2.03;;;3.90;99.90;;;;;;10392710;28;20048;-64
2021/01/06 16:48:03;;;;;;;4.60;2.10;;;4.00;99.90;;;;;;10338530;28;20051;-64
2021/01/06 16:53:05;;;;;;;6.47;2.67;;;4.00;99.90;;;;;;10390904;28;20045;-63
2021/01/06 16:58:12;;;;;;;4.43;2.25;;;3.90;99.90;;;;;;10391868;28;20062;-63
2021/01/06 17:03:38;;;;;;;3.70;1.70;;;4.00;99.90;;;;;;10390043;28;20179;-63
2021/01/06 17:08:40;;;;;;;2.60;1.50;;;3.90;99.90;;;;;;10409625;28;20531;-63
2021/01/06 17:13:55;;;;;;;3.20;1.65;;;4.00;99.90;;;;;;10406417;28;20048;-63
2021/01/06 17:19:11;;;;;;;3.72;1.50;;;3.90;99.90;;;;;;10354797;28;20072;-63
2021/01/06 17:24:32;;;;;;;2.00;0.90;;;3.90;99.90;;;;;;10405378;28;20116;-64
2021/01/06 17:29:36;;;;;;;2.17;1.25;;;4.00;99.90;;;;;;10349466;28;20050;-64
2021/01/06 17:34:37;;;;;;;2.08;0.85;;;4.00;99.90;;;;;;10384246;28;20049;-64
2021/01/06 17:39:42;;;;;;;5.38;2.15;;;3.90;99.90;;;;;;10407946;28;20068;-64
2021/01/06 17:44:47;;;;;;;4.00;1.85;;;4.00;99.90;;;;;;10348715;28;20522;-64
2021/01/06 17:49:48;;;;;;;2.75;1.65;;;4.00;99.90;;;;;;10345698;28;20038;-65
2021/01/06 17:54:50;;;;;;;2.92;1.45;;;4.00;99.90;;;;;;10366194;28;20053;-64
2021/01/06 17:59:51;;;;;;;2.97;1.40;;;4.00;99.90;;;;;;10366895;28;20046;-64
2021/01/06 18:04:53;;;;;;;2.92;1.48;;;3.90;99.90;;;;;;10366623;28;20073;-65
2021/01/06 18:09:54;;;;;;;2.72;1.35;;;3.90;99.90;;;;;;10357614;28;20434;-65
2021/01/06 18:14:56;;;;;;;2.90;1.42;;;3.90;99.90;;;;;;10338715;28;20053;-64
2021/01/06 18:19:58;;;;;;;2.72;1.70;;;3.90;99.90;;;;;;10336720;28;20199;-64
2021/01/06 18:24:59;;;;;;;3.47;1.17;;;3.80;99.90;;;;;;10327788;28;20045;-65
2021/01/06 18:30:02;;;;;;;3.25;1.55;;;3.90;99.90;;;;;;10334275;28;20459;-64
2021/01/06 18:35:14;;;;;;;2.88;1.75;;;3.80;99.90;;;;;;10355939;28;20107;-64
2021/01/06 18:40:16;;;;;;;5.90;1.75;;;3.80;99.90;;;;;;10348321;28;20105;-63
2021/01/06 18:45:18;;;;;;;2.28;1.30;;;3.80;99.90;;;;;;10356526;28;20056;-64
2021/01/06 18:50:21;;;;;;;2.60;1.30;;;3.80;99.90;;;;;;10345063;28;20058;-65
2021/01/06 18:55:28;;;;;;;3.38;1.10;;;3.80;99.90;;;;;;10358784;28;20046;-65
2021/01/06 19:00:29;;;;;;;3.67;1.87;;;3.80;99.90;;;;;;10358828;28;20046;-65
2021/01/06 19:05:46;;;;;;;5.45;1.98;;;3.70;99.90;;;;;;10354655;28;20387;-64
2021/01/06 19:10:47;;;;;;;3.85;2.03;;;3.70;99.90;;;;;;10353190;28;20550;-64
2021/01/06 19:15:49;;;;;;;3.22;2.00;;;3.70;99.90;;;;;;10357726;28;20057;-64
2021/01/06 19:20:54;;;;;;;4.85;2.90;;;3.70;99.90;;;;;;10362833;28;20045;-64
2021/01/06 19:25:57;;;;;;;3.88;2.10;;;3.70;99.90;;;;;;10350317;28;20058;-64
2021/01/06 19:31:00;;;;;;;4.32;2.55;;;3.70;99.90;;;;;;10360905;28;20138;-64
2021/01/06 19:36:01;;;;;;;11.18;3.25;;;3.60;99.90;;;;;;10363944;28;20120;-64
2021/01/06 19:41:03;;;;;;;4.22;2.42;;;3.60;99.90;;;;;;10360509;28;20480;-65
2021/01/06 19:46:05;;;;;;;5.28;2.60;;;3.60;99.90;;;;;;10356780;28;20038;-64
2021/01/06 19:51:07;;;;;;;6.13;2.90;;;3.60;99.90;;;;;;10354992;28;20057;-64
2021/01/06 19:56:10;;;;;;;5.57;3.55;;;3.60;99.90;;;;;;10362318;28;20464;-64
2021/01/06 20:01:18;;;;;;;6.40;3.22;;;3.60;99.90;;;;;;10354862;28;20073;-65
2021/01/06 20:06:20;;;;;;;4.60;3.00;;;3.50;99.90;;;;;;10348986;28;20097;-64
2021/01/06 20:11:26;;;;;;;4.95;3.28;;;3.50;99.90;;;;;;10349630;28;20132;-63
2021/01/06 20:16:28;;;;;;;6.38;3.28;;;3.50;99.90;;;;;;10357151;28;20142;-64
2021/01/06 20:21:32;;;;;;;5.65;3.55;;;3.50;99.90;;;;;;10350431;28;20049;-64
2021/01/06 20:26:33;;;;;;;4.57;3.00;;;3.50;99.90;;;;;;10358020;28;20195;-63
2021/01/06 20:31:36;;;;;;;6.68;3.15;;;3.40;99.90;;;;;;10340684;28;20038;-63
2021/01/06 20:36:38;;;;;;;8.70;3.53;;;3.40;99.90;;;;;;10360381;28;20064;-63
2021/01/06 20:41:40;;;;;;;7.97;3.28;;;3.40;99.90;;;;;;10332497;28;20523;-63
2021/01/06 20:46:42;;;;;;;7.95;3.85;;;3.30;99.90;;;;;;10344402;28;20053;-63
2021/01/06 20:51:43;;;;;;;6.13;3.50;;;3.30;99.90;;;;;;10357984;28;20049;-63
2021/01/06 20:56:51;;;;;;;7.57;3.80;;;3.30;99.90;;;;;;10353260;28;20050;-63
2021/01/06 21:02:12;;;;;;;9.73;4.53;;;3.30;99.90;;;;;;10350984;28;20053;-63
2021/01/06 21:07:13;;;;;;;10.18;4.90;;;3.20;99.90;;;;;;10342623;28;20038;-63
2021/01/06 21:12:14;;;;;;;8.50;4.30;;;3.20;99.90;;;;;;10350218;28;20041;-63
2021/01/06 21:17:15;;;;;;;9.93;4.53;;;3.30;99.90;;;;;;10353816;28;20045;-64
2021/01/06 21:22:16;;;;;;;10.57;4.72;;;3.30;99.90;;;;;;10341953;28;20058;-63
2021/01/06 21:27:18;;;;;;;9.52;4.82;;;3.20;99.90;;;;;;10347752;28;20059;-64
2021/01/06 21:32:24;;;;;;;11.80;5.35;;;3.20;99.90;;;;;;10348991;28;20060;-64
2021/01/06 21:37:25;;;;;;;13.60;5.28;;;3.10;99.90;;;;;;10339465;28;20378;-63
2021/01/06 21:42:26;;;;;;;14.73;6.63;;;3.10;99.90;;;;;;10347044;28;20054;-64
2021/01/06 21:47:27;;;;;;;11.48;5.47;;;3.10;99.90;;;;;;10350046;28;20053;-64
2021/01/06 21:52:28;;;;;;;15.18;6.65;;;3.10;99.90;;;;;;10348210;28;20054;-63
2021/01/06 21:57:30;;;;;;;11.38;5.47;;;3.10;99.90;;;;;;10359658;28;20062;-64
2021/01/06 22:02:31;;;;;;;12.85;5.65;;;3.10;99.90;;;;;;10343449;28;20042;-63
2021/01/06 22:07:32;;;;;;;11.75;6.13;;;3.10;99.90;;;;;;10338787;28;20041;-64
2021/01/06 22:12:33;;;;;;;13.45;5.88;;;3.00;99.90;;;;;;10353820;28;20472;-63
2021/01/06 22:17:35;;;;;;;14.43;6.28;;;3.10;99.90;;;;;;10332089;28;20115;-63
2021/01/06 22:22:36;;;;;;;13.65;6.43;;;3.10;99.90;;;;;;10331432;28;20046;-63
2021/01/06 22:27:38;;;;;;;13.02;6.85;;;3.10;99.90;;;;;;10349128;28;20049;-63
2021/01/06 22:32:39;;;;;;;14.85;6.45;;;3.10;99.90;;;;;;10376650;28;20064;-62
2021/01/06 22:37:41;;;;;;;18.45;7.85;;;3.10;99.90;;;;;;10375558;28;20053;-63
2021/01/06 22:42:42;;;;;;;14.05;7.03;;;3.10;99.90;;;;;;10371769;28;20438;-63
2021/01/06 22:47:45;;;;;;;18.00;7.57;;;3.00;99.90;;;;;;10378183;28;20046;-63
2021/01/06 22:52:47;;;;;;;18.15;7.60;;;3.00;99.90;;;;;;10363768;28;20049;-63
2021/01/06 22:57:48;;;;;;;17.30;8.63;;;3.00;99.90;;;;;;10356071;28;20087;-63
2021/01/06 23:02:49;;;;;;;18.83;7.25;;;3.00;99.90;;;;;;10352627;28;20049;-64
2021/01/06 23:07:51;;;;;;;16.13;7.20;;;2.90;99.90;;;;;;10350435;28;20045;-62
2021/01/06 23:12:53;;;;;;;15.02;7.05;;;3.00;99.90;;;;;;10350524;28;21040;-63
2021/01/06 23:17:54;;;;;;;13.40;6.20;;;2.90;99.90;;;;;;10354973;28;20103;-62
2021/01/06 23:22:55;;;;;;;19.30;7.57;;;2.90;99.90;;;;;;10352175;28;20050;-62
2021/01/06 23:27:56;;;;;;;17.25;7.50;;;2.90;99.90;;;;;;10345616;28;20046;-62
2021/01/06 23:32:58;;;;;;;14.07;5.70;;;2.90;99.90;;;;;;10355656;28;20041;-62
2021/01/06 23:37:59;;;;;;;16.20;6.82;;;2.90;99.90;;;;;;10352738;28;20057;-63
2021/01/06 23:43:00;;;;;;;13.65;7.28;;;2.80;99.90;;;;;;10358368;28;20099;-62
2021/01/06 23:48:02;;;;;;;14.60;6.82;;;2.80;99.90;;;;;;10359457;28;20054;-62
2021/01/06 23:53:04;;;;;;;18.00;7.53;;;2.80;99.90;;;;;;10350919;28;20060;-62
2021/01/06 23:58:05;;;;;;;15.45;7.68;;;2.80;99.90;;;;;;10348348;28;20053;-62
